createdAt,value
2022-11-24T00:01:09.822Z,6.40
2022-11-24T00:03:36.314Z,6.20
2022-11-24T00:06:07.988Z,6.07
2022-11-24T00:08:39.062Z,6.18
2022-11-24T00:11:07.721Z,6.40
2022-11-24T00:13:34.681Z,6.33
2022-11-24T00:16:05.874Z,6.15
2022-11-24T00:18:32.573Z,5.63
2022-11-24T00:20:58.883Z,5.68
2022-11-24T00:23:25.211Z,5.68
2022-11-24T00:25:51.710Z,5.13
2022-11-24T00:28:18.261Z,4.57
2022-11-24T00:30:44.790Z,4.90
2022-11-24T00:33:11.177Z,5.15
2022-11-24T00:35:37.493Z,5.40
2022-11-24T00:38:03.830Z,5.37
2022-11-24T00:40:34.881Z,5.05
2022-11-24T00:43:01.702Z,4.60
2022-11-24T00:45:28.283Z,4.55
2022-11-24T00:47:54.618Z,4.55
2022-11-24T00:50:21.456Z,4.30
2022-11-24T00:52:47.956Z,3.88
2022-11-24T00:55:14.334Z,3.90
2022-11-24T00:57:40.826Z,4.45
2022-11-24T01:00:08.214Z,3.58
2022-11-24T01:02:34.993Z,4.30
2022-11-24T01:05:03.213Z,5.10
2022-11-24T01:07:30.957Z,4.75
2022-11-24T01:09:57.431Z,4.20
2022-11-24T01:12:23.797Z,4.15
2022-11-24T01:14:50.330Z,4.23
2022-11-24T01:17:16.769Z,4.72
2022-11-24T01:19:43.253Z,3.80
2022-11-24T01:22:09.819Z,3.72
2022-11-24T01:24:36.445Z,4.95
2022-11-24T01:27:02.953Z,3.70
2022-11-24T01:29:29.514Z,3.67
2022-11-24T01:31:56.099Z,4.28
2022-11-24T01:34:22.668Z,4.70
2022-11-24T01:36:49.171Z,3.88
2022-11-24T01:39:15.507Z,3.93
2022-11-24T01:41:42.201Z,4.30
2022-11-24T01:44:29.851Z,3.85
2022-11-24T01:47:07.119Z,4.20
2022-11-24T01:49:47.772Z,4.10
2022-11-24T01:52:21.942Z,4.17
2022-11-24T01:55:11.758Z,4.80
2022-11-24T01:57:48.963Z,4.28
2022-11-24T02:00:15.976Z,4.18
2022-11-24T02:02:44.438Z,4.40
2022-11-24T02:05:24.255Z,4.57
2022-11-24T02:07:54.286Z,4.47
2022-11-24T02:10:22.250Z,4.50
2022-11-24T02:12:51.625Z,4.03
2022-11-24T02:15:19.308Z,3.83
2022-11-24T02:17:46.320Z,4.83
2022-11-24T02:20:14.693Z,3.90
2022-11-24T02:23:00.058Z,3.65
2022-11-24T02:25:29.465Z,3.92
2022-11-24T02:27:58.178Z,3.40
2022-11-24T02:30:24.737Z,3.57
2022-11-24T02:32:52.460Z,3.75
2022-11-24T02:35:19.684Z,3.80
2022-11-24T02:37:46.251Z,4.68
2022-11-24T02:40:16.550Z,4.53
2022-11-24T02:42:46.281Z,3.60
2022-11-24T02:45:15.067Z,3.70
2022-11-24T02:47:41.652Z,4.10
2022-11-24T02:50:08.457Z,3.85
2022-11-24T02:52:34.965Z,3.67
2022-11-24T02:55:01.469Z,3.53
2022-11-24T02:57:27.963Z,3.70
2022-11-24T02:59:57.216Z,4.07
2022-11-24T03:02:23.854Z,3.70
2022-11-24T03:04:50.468Z,4.10
2022-11-24T03:07:16.997Z,4.50
2022-11-24T03:09:43.641Z,4.20
2022-11-24T03:12:10.152Z,4.20
2022-11-24T03:14:36.843Z,4.57
2022-11-24T03:17:04.210Z,4.50
2022-11-24T03:19:30.698Z,4.13
2022-11-24T03:21:57.057Z,4.30
2022-11-24T03:24:23.453Z,4.90
2022-11-24T03:26:49.869Z,5.88
2022-11-24T03:29:16.979Z,6.22
2022-11-24T03:31:43.616Z,4.97
2022-11-24T03:34:10.311Z,4.97
2022-11-24T03:36:36.653Z,5.07
2022-11-24T03:39:03.453Z,4.95
2022-11-24T03:41:29.806Z,5.68
2022-11-24T03:43:56.351Z,4.70
2022-11-24T03:46:22.830Z,4.82
2022-11-24T03:48:49.252Z,5.10
2022-11-24T03:51:15.759Z,10.50
2022-11-24T03:53:42.245Z,12.13
2022-11-24T03:56:08.632Z,16.60
2022-11-24T03:58:35.384Z,10.00
2022-11-24T04:01:02.132Z,9.20
2022-11-24T04:03:28.597Z,4.93
2022-11-24T04:05:55.104Z,12.85
2022-11-24T04:08:21.637Z,8.03
2022-11-24T04:10:53.256Z,4.85
2022-11-24T04:13:23.749Z,3.20
2022-11-24T04:15:50.620Z,10.02
2022-11-24T04:18:17.446Z,4.75
2022-11-24T04:20:44.219Z,4.00
2022-11-24T04:23:11.411Z,5.75
2022-11-24T04:25:38.038Z,6.15
2022-11-24T04:28:04.714Z,8.38
2022-11-24T04:30:31.314Z,6.45
2022-11-24T04:32:57.797Z,4.27
2022-11-24T04:35:24.522Z,3.10
2022-11-24T04:37:51.089Z,2.47
2022-11-24T04:40:17.917Z,2.70
2022-11-24T04:42:44.414Z,2.47
2022-11-24T04:45:11.598Z,2.17
2022-11-24T04:47:38.958Z,2.50
2022-11-24T04:50:07.816Z,2.17
2022-11-24T04:52:34.375Z,2.88
2022-11-24T04:55:00.997Z,2.10
2022-11-24T04:57:28.093Z,2.30
2022-11-24T04:59:55.442Z,2.00
2022-11-24T05:02:22.951Z,2.70
2022-11-24T05:04:49.503Z,2.83
2022-11-24T05:07:19.109Z,2.80
2022-11-24T05:10:05.188Z,2.67
2022-11-24T05:12:31.576Z,2.50
2022-11-24T05:14:59.429Z,2.47
2022-11-24T05:17:34.328Z,2.50
2022-11-24T05:20:01.133Z,2.33
2022-11-24T05:22:29.647Z,2.37
2022-11-24T05:24:56.225Z,2.00
2022-11-24T05:27:23.089Z,2.05
2022-11-24T05:29:50.039Z,2.22
2022-11-24T05:32:16.564Z,2.38
2022-11-24T05:34:43.236Z,1.93
2022-11-24T05:37:09.735Z,2.03
2022-11-24T05:39:36.810Z,1.60
2022-11-24T05:42:25.942Z,2.22
2022-11-24T05:44:53.551Z,2.13
2022-11-24T05:47:20.268Z,1.60
2022-11-24T05:49:46.693Z,1.60
2022-11-24T05:52:13.456Z,1.88
2022-11-24T05:54:40.098Z,1.77
2022-11-24T05:57:06.563Z,1.98
2022-11-24T05:59:33.910Z,1.80
2022-11-24T06:02:00.813Z,2.28
2022-11-24T06:04:27.422Z,2.05
2022-11-24T06:06:53.914Z,1.50
2022-11-24T06:09:20.490Z,1.80
2022-11-24T06:11:50.271Z,1.83
2022-11-24T06:14:16.802Z,1.80
2022-11-24T06:16:43.356Z,2.40
2022-11-24T06:19:11.090Z,2.80
2022-11-24T06:21:37.721Z,2.25
2022-11-24T06:24:04.836Z,2.73
2022-11-24T06:26:31.788Z,2.40
2022-11-24T06:28:58.329Z,1.20
2022-11-24T06:31:24.862Z,1.67
2022-11-24T06:33:51.470Z,1.98
2022-11-24T06:36:18.042Z,1.77
2022-11-24T06:38:44.573Z,1.50
2022-11-24T06:41:16.063Z,1.42
2022-11-24T06:43:42.617Z,1.90
2022-11-24T06:46:09.330Z,2.22
2022-11-24T06:48:35.814Z,4.23
2022-11-24T06:51:04.811Z,4.03
2022-11-24T06:53:33.108Z,2.10
2022-11-24T06:56:00.610Z,1.00
2022-11-24T06:58:27.330Z,1.20
2022-11-24T07:00:54.014Z,1.00
2022-11-24T07:03:20.681Z,1.48
2022-11-24T07:05:47.082Z,1.90
2022-11-24T07:08:17.850Z,4.20
2022-11-24T07:10:44.799Z,2.40
2022-11-24T07:13:11.314Z,2.27
2022-11-24T07:15:37.825Z,2.25
2022-11-24T07:18:04.661Z,2.00
2022-11-24T07:20:30.985Z,1.45
2022-11-24T07:22:58.198Z,1.30
2022-11-24T07:25:25.409Z,1.20
2022-11-24T07:27:59.598Z,0.95
2022-11-24T07:30:27.431Z,1.20
2022-11-24T07:33:02.078Z,1.38
2022-11-24T07:35:29.387Z,1.05
2022-11-24T07:37:57.525Z,1.03
2022-11-24T07:40:25.935Z,1.13
2022-11-24T07:42:52.633Z,1.63
2022-11-24T07:45:19.054Z,1.00
2022-11-24T07:47:45.532Z,1.30
2022-11-24T07:50:12.849Z,1.40
2022-11-24T07:52:39.744Z,1.10
2022-11-24T07:55:07.554Z,1.65
2022-11-24T07:57:34.039Z,1.52
2022-11-24T08:00:00.390Z,1.00
2022-11-24T08:02:26.923Z,0.80
2022-11-24T08:04:53.417Z,0.93
2022-11-24T08:07:20.062Z,1.35
2022-11-24T08:09:46.655Z,1.38
2022-11-24T08:12:13.007Z,1.25
2022-11-24T08:14:39.505Z,2.13
2022-11-24T08:17:05.901Z,1.27
2022-11-24T08:19:32.325Z,1.58
2022-11-24T08:21:58.827Z,1.10
2022-11-24T08:24:25.342Z,1.00
2022-11-24T08:26:51.885Z,1.20
2022-11-24T08:29:18.241Z,1.15
2022-11-24T08:31:44.766Z,0.98
2022-11-24T08:34:11.101Z,1.20
2022-11-24T08:36:37.616Z,2.35
2022-11-24T08:39:04.116Z,1.63
2022-11-24T08:41:31.125Z,1.52
2022-11-24T08:43:57.807Z,1.50
2022-11-24T08:46:24.528Z,1.13
2022-11-24T08:48:53.438Z,1.13
2022-11-24T08:51:23.326Z,1.20
2022-11-24T08:53:54.509Z,1.05
2022-11-24T08:56:20.861Z,0.98
2022-11-24T08:58:47.463Z,1.20
2022-11-24T09:01:16.510Z,1.55
2022-11-24T09:03:49.956Z,1.00
2022-11-24T09:06:19.108Z,0.98
2022-11-24T09:08:45.633Z,1.20
2022-11-24T09:11:13.841Z,0.75
2022-11-24T09:13:41.207Z,1.73
2022-11-24T09:16:12.173Z,1.50
2022-11-24T09:18:39.188Z,1.38
2022-11-24T09:21:17.492Z,1.45
2022-11-24T09:23:46.157Z,1.20
2022-11-24T09:26:21.253Z,1.23
2022-11-24T09:28:48.304Z,0.90
2022-11-24T09:31:17.031Z,0.73
2022-11-24T09:33:44.557Z,1.60
2022-11-24T09:36:11.364Z,1.13
2022-11-24T09:38:37.957Z,1.10
2022-11-24T09:41:31.510Z,1.10
2022-11-24T09:44:35.521Z,1.13
2022-11-24T09:47:32.475Z,1.55
2022-11-24T09:50:24.022Z,0.90
2022-11-24T09:53:03.884Z,1.85
2022-11-24T09:55:39.218Z,1.33
2022-11-24T09:58:31.199Z,1.70
2022-11-24T10:00:58.684Z,1.15
2022-11-24T10:03:39.520Z,1.55
2022-11-24T10:06:22.259Z,1.33
2022-11-24T10:09:15.321Z,2.60
2022-11-24T10:12:04.252Z,1.10
2022-11-24T10:14:59.069Z,1.92
2022-11-24T10:17:45.593Z,1.42
2022-11-24T10:20:40.835Z,1.67
2022-11-24T10:23:39.757Z,1.07
2022-11-24T10:26:38.394Z,1.20
2022-11-24T10:29:26.214Z,2.75
2022-11-24T10:31:56.138Z,1.00
2022-11-24T10:34:31.441Z,1.00
2022-11-24T10:37:00.545Z,2.00
2022-11-24T10:39:37.309Z,2.22
2022-11-24T10:42:23.738Z,1.17
2022-11-24T10:45:03.072Z,1.00
2022-11-24T10:47:30.361Z,1.20
2022-11-24T10:50:02.471Z,1.13
2022-11-24T10:52:31.844Z,0.85
2022-11-24T10:55:04.773Z,1.13
2022-11-24T10:57:32.680Z,1.10
2022-11-24T10:59:59.988Z,1.15
2022-11-24T11:02:28.344Z,1.40
2022-11-24T11:04:54.964Z,1.80
2022-11-24T11:07:25.233Z,1.50
2022-11-24T11:10:19.674Z,1.38
2022-11-24T11:12:46.198Z,1.30
2022-11-24T11:15:30.315Z,1.10
2022-11-24T11:17:59.217Z,1.95
2022-11-24T11:20:29.949Z,1.30
2022-11-24T11:22:58.888Z,1.33
2022-11-24T11:25:36.240Z,1.58
2022-11-24T11:28:22.075Z,1.50
2022-11-24T11:31:21.113Z,1.42
2022-11-24T11:34:04.796Z,1.08
2022-11-24T11:36:33.903Z,1.17
2022-11-24T11:39:00.563Z,1.05
2022-11-24T11:41:34.039Z,1.20
2022-11-24T11:44:26.575Z,0.80
2022-11-24T11:46:56.342Z,1.00
2022-11-24T11:49:23.763Z,1.25
2022-11-24T11:52:13.810Z,1.95
2022-11-24T11:55:05.470Z,2.17
2022-11-24T11:57:49.917Z,1.55
2022-11-24T12:00:20.131Z,1.13
2022-11-24T12:03:05.575Z,1.73
2022-11-24T12:05:41.153Z,1.05
2022-11-24T12:08:26.027Z,1.30
2022-11-24T12:11:07.798Z,1.23
2022-11-24T12:13:48.596Z,1.13
2022-11-24T12:16:39.530Z,0.98
2022-11-24T12:19:21.809Z,1.63
2022-11-24T12:21:57.586Z,1.43
2022-11-24T12:24:38.769Z,1.50
2022-11-24T12:27:09.945Z,1.60
2022-11-24T12:30:10.053Z,1.60
2022-11-24T12:33:07.389Z,1.98
2022-11-24T12:35:36.788Z,1.80
2022-11-24T12:38:53.852Z,1.27
2022-11-24T12:41:41.317Z,1.80
2022-11-24T12:44:30.795Z,1.83
2022-11-24T12:47:16.431Z,1.50
2022-11-24T12:50:08.061Z,1.10
2022-11-24T12:52:47.833Z,1.27
2022-11-24T12:55:21.411Z,1.60
2022-11-24T12:57:59.459Z,1.85
2022-11-24T13:00:34.948Z,1.83
2022-11-24T13:03:20.286Z,1.50
2022-11-24T13:05:58.866Z,1.30
2022-11-24T13:08:28.187Z,2.38
2022-11-24T13:10:56.390Z,2.28
2022-11-24T13:13:29.810Z,1.90
2022-11-24T13:16:20.641Z,2.03
2022-11-24T13:18:46.882Z,2.20
2022-11-24T13:21:42.818Z,2.40
2022-11-24T13:24:19.683Z,2.22
2022-11-24T13:26:49.177Z,1.23
2022-11-24T13:29:27.970Z,0.90
2022-11-24T13:31:55.481Z,0.85
2022-11-24T13:34:40.469Z,1.00
2022-11-24T13:37:27.291Z,0.70
2022-11-24T13:40:02.316Z,0.80
2022-11-24T13:42:41.495Z,0.60
2022-11-24T13:45:39.925Z,0.70
2022-11-24T13:48:18.730Z,1.15
2022-11-24T13:50:51.941Z,1.02
2022-11-24T13:53:30.287Z,1.75
2022-11-24T13:56:05.833Z,1.80
2022-11-24T13:59:01.404Z,2.25
2022-11-24T14:01:34.773Z,2.90
2022-11-24T14:04:30.955Z,3.47
2022-11-24T14:07:07.398Z,2.80
2022-11-24T14:09:43.525Z,4.03
2022-11-24T14:12:18.062Z,2.30
2022-11-24T14:14:47.208Z,1.65
2022-11-24T14:17:14.054Z,1.90
2022-11-24T14:20:01.343Z,1.20
2022-11-24T14:22:36.867Z,0.87
2022-11-24T14:25:03.854Z,0.88
2022-11-24T14:27:37.187Z,2.65
2022-11-24T14:30:25.194Z,3.53
2022-11-24T14:32:56.947Z,3.00
2022-11-24T14:35:29.594Z,2.53
2022-11-24T14:37:56.627Z,1.27
2022-11-24T14:40:44.035Z,0.73
2022-11-24T14:43:25.625Z,1.77
2022-11-24T14:45:56.253Z,1.30
2022-11-24T14:48:27.053Z,1.63
2022-11-24T14:51:04.133Z,0.95
2022-11-24T14:53:30.745Z,1.00
2022-11-24T14:56:07.946Z,1.40
2022-11-24T14:58:40.462Z,1.73
2022-11-24T15:01:18.510Z,1.80
2022-11-24T15:03:45.858Z,1.67
2022-11-24T15:06:19.239Z,1.17
2022-11-24T15:08:48.884Z,3.13
2022-11-24T15:11:15.964Z,4.53
2022-11-24T15:13:56.780Z,3.60
2022-11-24T15:16:26.661Z,2.92
2022-11-24T15:19:00.170Z,2.55
2022-11-24T15:21:37.348Z,3.45
2022-11-24T15:24:14.336Z,4.00
2022-11-24T15:26:42.333Z,5.07
2022-11-24T15:29:10.421Z,4.85
2022-11-24T15:31:37.641Z,9.20
2022-11-24T15:34:04.216Z,2.83
2022-11-24T15:36:30.566Z,0.90
2022-11-24T15:38:58.207Z,0.87
2022-11-24T15:41:30.654Z,0.88
2022-11-24T15:44:00.560Z,0.98
2022-11-24T15:46:28.066Z,1.95
2022-11-24T15:48:55.169Z,1.40
2022-11-24T15:51:24.789Z,0.90
2022-11-24T15:53:55.782Z,0.80
2022-11-24T15:56:32.343Z,6.28
2022-11-24T15:58:59.372Z,4.75
2022-11-24T16:01:30.727Z,4.25
2022-11-24T16:03:57.131Z,3.40
2022-11-24T16:06:25.017Z,1.60
2022-11-24T16:08:52.409Z,1.80
2022-11-24T16:11:18.897Z,2.85
2022-11-24T16:13:51.561Z,1.98
2022-11-24T16:16:19.404Z,2.80
2022-11-24T16:18:46.058Z,5.93
2022-11-24T16:21:12.489Z,14.40
2022-11-24T16:23:38.997Z,9.82
2022-11-24T16:26:06.413Z,6.80
2022-11-24T16:28:33.085Z,4.67
2022-11-24T16:30:59.679Z,3.47
2022-11-24T16:33:26.254Z,3.90
2022-11-24T16:35:52.755Z,3.05
2022-11-24T16:38:20.150Z,6.57
2022-11-24T16:40:59.110Z,5.37
2022-11-24T16:43:25.706Z,3.60
2022-11-24T16:46:24.170Z,2.30
2022-11-24T16:48:52.997Z,1.65
2022-11-24T16:51:22.099Z,1.40
2022-11-24T16:53:56.246Z,1.13
2022-11-24T16:56:22.729Z,1.15
2022-11-24T16:58:49.266Z,1.75
2022-11-24T17:01:15.801Z,1.80
2022-11-24T17:03:42.473Z,1.90
2022-11-24T17:06:11.744Z,2.63
2022-11-24T17:08:40.498Z,1.52
2022-11-24T17:11:18.754Z,2.25
2022-11-24T17:13:47.284Z,3.05
2022-11-24T17:16:17.061Z,2.67
2022-11-24T17:18:44.381Z,2.30
2022-11-24T17:21:17.035Z,2.08
2022-11-24T17:23:43.929Z,1.92
2022-11-24T17:26:12.849Z,1.65
2022-11-24T17:28:39.798Z,1.85
2022-11-24T17:31:14.424Z,2.33
2022-11-24T17:33:41.122Z,3.50
2022-11-24T17:36:07.956Z,4.05
2022-11-24T17:38:35.064Z,10.35
2022-11-24T17:41:02.017Z,9.02
2022-11-24T17:43:28.941Z,6.57
2022-11-24T17:45:57.860Z,6.78
2022-11-24T17:48:24.609Z,6.25
2022-11-24T17:51:02.157Z,5.22
2022-11-24T17:53:29.268Z,4.57
2022-11-24T17:56:00.113Z,4.90
2022-11-24T17:58:28.760Z,5.32
2022-11-24T18:00:55.849Z,5.93
2022-11-24T18:03:23.124Z,5.97
2022-11-24T18:05:50.080Z,5.18
2022-11-24T18:08:17.114Z,5.57
2022-11-24T18:10:43.452Z,4.90
2022-11-24T18:13:22.188Z,3.42
2022-11-24T18:16:02.576Z,3.15
2022-11-24T18:18:29.511Z,4.88
2022-11-24T18:20:57.531Z,6.87
2022-11-24T18:23:24.643Z,6.72
2022-11-24T18:25:59.114Z,6.38
2022-11-24T18:28:26.600Z,6.05
2022-11-24T18:30:53.551Z,6.20
2022-11-24T18:33:20.238Z,5.60
2022-11-24T18:36:01.154Z,5.82
2022-11-24T18:38:28.418Z,5.32
2022-11-24T18:40:56.646Z,5.60
2022-11-24T18:43:24.390Z,7.22
2022-11-24T18:45:53.197Z,8.30
2022-11-24T18:48:21.480Z,7.57
2022-11-24T18:50:52.148Z,7.25
2022-11-24T18:53:19.785Z,7.15
2022-11-24T18:55:59.544Z,6.75
2022-11-24T18:58:29.962Z,7.57
2022-11-24T19:01:21.203Z,6.88
2022-11-24T19:03:56.046Z,7.53
2022-11-24T19:06:31.978Z,7.72
2022-11-24T19:08:59.893Z,8.98
2022-11-24T19:11:35.569Z,10.10
2022-11-24T19:14:04.478Z,10.73
2022-11-24T19:16:31.232Z,12.98
2022-11-24T19:19:02.723Z,11.95
2022-11-24T19:21:34.400Z,13.35
2022-11-24T19:24:04.803Z,11.60
2022-11-24T19:26:32.265Z,13.77
2022-11-24T19:28:58.780Z,13.40
2022-11-24T19:31:25.399Z,17.33
2022-11-24T19:33:54.230Z,17.23
2022-11-24T19:36:21.895Z,16.97
2022-11-24T19:38:50.769Z,16.27
2022-11-24T19:41:19.593Z,17.92
2022-11-24T19:43:47.225Z,17.50
2022-11-24T19:46:16.098Z,18.75
2022-11-24T19:48:44.691Z,17.97
2022-11-24T19:51:16.886Z,19.17
2022-11-24T19:53:43.868Z,18.65
2022-11-24T19:56:11.639Z,16.92
2022-11-24T19:58:39.776Z,17.08
2022-11-24T20:01:11.114Z,16.17
2022-11-24T20:03:38.961Z,18.65
2022-11-24T20:06:06.841Z,18.15
2022-11-24T20:08:35.485Z,18.02
2022-11-24T20:11:03.865Z,18.33
2022-11-24T20:13:31.157Z,18.60
2022-11-24T20:16:06.226Z,19.55
2022-11-24T20:18:36.365Z,19.85
2022-11-24T20:21:25.522Z,19.30
2022-11-24T20:24:00.124Z,20.08
2022-11-24T20:26:29.855Z,20.57
2022-11-24T20:28:58.594Z,21.00
2022-11-24T20:31:31.035Z,19.35
2022-11-24T20:33:58.935Z,20.25
2022-11-24T20:36:27.907Z,19.27
2022-11-24T20:38:55.238Z,23.20
2022-11-24T20:41:26.962Z,22.13
2022-11-24T20:43:55.305Z,22.98
2022-11-24T20:46:27.504Z,24.88
2022-11-24T20:48:55.134Z,24.90
2022-11-24T20:51:27.838Z,24.98
2022-11-24T20:53:57.534Z,24.30
2022-11-24T20:56:31.343Z,23.80
2022-11-24T20:58:58.425Z,25.55
2022-11-24T21:01:35.184Z,25.80
2022-11-24T21:04:02.878Z,23.08
2022-11-24T21:06:29.754Z,24.70
2022-11-24T21:09:02.047Z,24.40
2022-11-24T21:11:30.716Z,23.30
2022-11-24T21:13:57.547Z,20.08
2022-11-24T21:16:32.965Z,21.95
2022-11-24T21:19:04.733Z,23.08
2022-11-24T21:21:34.704Z,22.63
2022-11-24T21:24:03.016Z,21.17
2022-11-24T21:26:29.680Z,20.10
2022-11-24T21:28:57.418Z,20.70
2022-11-24T21:31:23.911Z,18.73
2022-11-24T21:33:52.512Z,19.40
2022-11-24T21:36:22.294Z,18.67
2022-11-24T21:38:54.048Z,19.40
2022-11-24T21:41:21.491Z,20.48
2022-11-24T21:43:48.656Z,19.77
2022-11-24T21:46:15.259Z,21.17
2022-11-24T21:48:42.595Z,20.60
2022-11-24T21:51:13.007Z,19.50
2022-11-24T21:53:40.589Z,23.42
2022-11-24T21:56:12.855Z,25.13
2022-11-24T21:58:47.562Z,23.98
2022-11-24T22:01:16.053Z,23.10
2022-11-24T22:03:43.250Z,21.77
2022-11-24T22:06:09.989Z,21.63
2022-11-24T22:08:36.356Z,22.00
2022-11-24T22:11:02.786Z,21.48
2022-11-24T22:13:29.369Z,18.65
2022-11-24T22:16:00.846Z,18.30
2022-11-24T22:18:30.715Z,20.27
2022-11-24T22:20:57.038Z,18.65
2022-11-24T22:23:23.529Z,17.63
2022-11-24T22:25:49.846Z,19.67
2022-11-24T22:28:16.371Z,19.45
2022-11-24T22:30:42.897Z,17.60
2022-11-24T22:33:09.267Z,16.10
2022-11-24T22:35:35.874Z,17.73
2022-11-24T22:38:02.391Z,17.23
2022-11-24T22:40:28.894Z,17.88
2022-11-24T22:42:55.403Z,20.27
2022-11-24T22:45:21.964Z,21.20
2022-11-24T22:47:48.292Z,17.88
2022-11-24T22:50:14.646Z,16.05
2022-11-24T22:52:41.006Z,15.20
2022-11-24T22:55:07.933Z,12.90
2022-11-24T22:57:34.470Z,13.13
2022-11-24T23:00:01.022Z,13.50
2022-11-24T23:02:28.338Z,11.57
2022-11-24T23:04:54.746Z,11.85
2022-11-24T23:07:21.229Z,11.67
2022-11-24T23:09:47.818Z,15.82
2022-11-24T23:12:14.245Z,15.13
2022-11-24T23:14:40.583Z,14.07
2022-11-24T23:17:07.086Z,12.05
2022-11-24T23:19:33.564Z,11.02
2022-11-24T23:21:59.890Z,9.73
2022-11-24T23:24:26.185Z,8.50
2022-11-24T23:26:52.644Z,6.82
2022-11-24T23:29:19.198Z,6.03
2022-11-24T23:31:46.020Z,7.28
2022-11-24T23:34:12.548Z,7.13
2022-11-24T23:36:39.136Z,9.32
2022-11-24T23:39:08.721Z,8.38
2022-11-24T23:41:35.766Z,8.30
2022-11-24T23:44:02.481Z,8.32
2022-11-24T23:46:29.576Z,9.23
2022-11-24T23:48:56.854Z,9.38
2022-11-24T23:51:26.272Z,10.15
2022-11-24T23:53:53.582Z,9.30
2022-11-24T23:56:22.612Z,10.50
2022-11-24T23:58:49.394Z,8.77
